sensor_id;sensor_type;location;lat;lon;timestamp;pressure;altitude;pressure_sealevel;temperature;humidity
41686;BME280;27370;42.764;23.432;2023-01-28T00:02:18;94920.22;;;-0.37;100.00
41686;BME280;27370;42.764;23.432;2023-01-28T00:04:43;94907.06;;;-0.49;100.00
41686;BME280;27370;42.764;23.432;2023-01-28T00:07:09;94923.78;;;-0.48;100.00
41686;BME280;27370;42.764;23.432;2023-01-28T00:09:34;94923.44;;;-0.47;100.00
41686;BME280;27370;42.764;23.432;2023-01-28T00:12:00;94930.59;;;-0.51;100.00
41686;BME280;27370;42.764;23.432;2023-01-28T00:14:27;94940.09;;;-0.31;100.00
41686;BME280;27370;42.764;23.432;2023-01-28T00:16:53;94937.47;;;-0.27;100.00
41686;BME280;27370;42.764;23.432;2023-01-28T00:19:18;94920.16;;;-0.40;100.00
41686;BME280;27370;42.764;23.432;2023-01-28T00:21:44;94948.13;;;-0.27;100.00
41686;BME280;27370;42.764;23.432;2023-01-28T00:24:09;94930.03;;;-0.41;100.00
41686;BME280;27370;42.764;23.432;2023-01-28T00:26:35;94932.69;;;-0.41;100.00
41686;BME280;27370;42.764;23.432;2023-01-28T00:29:01;94955.06;;;-0.22;100.00
41686;BME280;27370;42.764;23.432;2023-01-28T00:31:26;94949.81;;;-0.19;100.00
41686;BME280;27370;42.764;23.432;2023-01-28T00:33:53;94950.63;;;-0.15;100.00
41686;BME280;27370;42.764;23.432;2023-01-28T00:36:20;94952.81;;;-0.20;100.00
41686;BME280;27370;42.764;23.432;2023-01-28T00:38:57;94950.50;;;-0.22;100.00
41686;BME280;27370;42.764;23.432;2023-01-28T00:41:25;94952.06;;;-0.21;100.00
41686;BME280;27370;42.764;23.432;2023-01-28T00:43:51;94954.38;;;-0.19;100.00
41686;BME280;27370;42.764;23.432;2023-01-28T00:46:18;94957.06;;;-0.16;100.00
41686;BME280;27370;42.764;23.432;2023-01-28T00:48:44;94965.53;;;-0.10;100.00
41686;BME280;27370;42.764;23.432;2023-01-28T00:51:12;94965.34;;;-0.21;100.00
41686;BME280;27370;42.764;23.432;2023-01-28T00:53:39;94956.03;;;-0.31;100.00
41686;BME280;27370;42.764;23.432;2023-01-28T00:56:06;94977.94;;;-0.18;100.00
41686;BME280;27370;42.764;23.432;2023-01-28T00:58:33;94974.16;;;-0.17;100.00
41686;BME280;27370;42.764;23.432;2023-01-28T01:03:34;94975.81;;;-0.09;100.00
41686;BME280;27370;42.764;23.432;2023-01-28T01:05:59;94971.56;;;-0.13;100.00
41686;BME280;27370;42.764;23.432;2023-01-28T01:08:25;94967.56;;;-0.23;100.00
41686;BME280;27370;42.764;23.432;2023-01-28T01:11:02;94966.25;;;-0.33;100.00
41686;BME280;27370;42.764;23.432;2023-01-28T01:13:31;94960.13;;;-0.37;100.00
41686;BME280;27370;42.764;23.432;2023-01-28T01:16:05;94968.50;;;-0.35;100.00
41686;BME280;27370;42.764;23.432;2023-01-28T01:18:32;94980.81;;;-0.26;100.00
41686;BME280;27370;42.764;23.432;2023-01-28T01:20:58;94975.56;;;-0.23;100.00
41686;BME280;27370;42.764;23.432;2023-01-28T01:23:29;94977.88;;;-0.21;100.00
41686;BME280;27370;42.764;23.432;2023-01-28T01:25:55;94977.78;;;-0.25;100.00
41686;BME280;27370;42.764;23.432;2023-01-28T01:28:20;94973.75;;;-0.19;100.00
41686;BME280;27370;42.764;23.432;2023-01-28T01:30:47;94967.94;;;-0.24;100.00
41686;BME280;27370;42.764;23.432;2023-01-28T01:33:13;94978.38;;;-0.16;100.00
41686;BME280;27370;42.764;23.432;2023-01-28T01:35:39;94975.00;;;-0.13;100.00
41686;BME280;27370;42.764;23.432;2023-01-28T01:38:05;94974.28;;;-0.10;100.00
41686;BME280;27370;42.764;23.432;2023-01-28T01:40:31;94980.72;;;-0.11;100.00
41686;BME280;27370;42.764;23.432;2023-01-28T01:42:59;94977.66;;;-0.13;100.00
41686;BME280;27370;42.764;23.432;2023-01-28T01:45:25;94970.78;;;-0.14;100.00
41686;BME280;27370;42.764;23.432;2023-01-28T01:48:01;94968.13;;;-0.14;100.00
41686;BME280;27370;42.764;23.432;2023-01-28T01:50:35;94984.94;;;-0.10;100.00
41686;BME280;27370;42.764;23.432;2023-01-28T01:53:10;94982.97;;;-0.13;100.00
41686;BME280;27370;42.764;23.432;2023-01-28T01:55:38;94992.16;;;-0.10;100.00
41686;BME280;27370;42.764;23.432;2023-01-28T01:58:11;94989.53;;;-0.07;100.00
41686;BME280;27370;42.764;23.432;2023-01-28T02:00:39;94972.88;;;-0.04;100.00
41686;BME280;27370;42.764;23.432;2023-01-28T02:03:07;94990.38;;;-0.03;100.00
41686;BME280;27370;42.764;23.432;2023-01-28T02:05:34;94986.41;;;-0.12;100.00
41686;BME280;27370;42.764;23.432;2023-01-28T02:08:00;94989.13;;;-0.09;100.00
41686;BME280;27370;42.764;23.432;2023-01-28T02:10:46;94989.47;;;-0.10;100.00
41686;BME280;27370;42.764;23.432;2023-01-28T02:13:15;94987.03;;;0.01;100.00
41686;BME280;27370;42.764;23.432;2023-01-28T02:15:41;94993.94;;;0.05;100.00
41686;BME280;27370;42.764;23.432;2023-01-28T02:18:08;94991.38;;;-0.11;100.00
41686;BME280;27370;42.764;23.432;2023-01-28T02:26:22;95000.13;;;-0.29;100.00
41686;BME280;27370;42.764;23.432;2023-01-28T02:28:55;94985.13;;;-0.41;100.00
41686;BME280;27370;42.764;23.432;2023-01-28T02:34:01;95002.53;;;-0.44;100.00
41686;BME280;27370;42.764;23.432;2023-01-28T02:36:42;95002.78;;;-0.49;100.00
41686;BME280;27370;42.764;23.432;2023-01-28T02:39:39;95011.47;;;-0.52;100.00
41686;BME280;27370;42.764;23.432;2023-01-28T02:42:11;94983.84;;;-0.67;100.00
41686;BME280;27370;42.764;23.432;2023-01-28T02:44:39;95001.25;;;-0.50;100.00
41686;BME280;27370;42.764;23.432;2023-01-28T02:47:12;94998.53;;;-0.53;100.00
41686;BME280;27370;42.764;23.432;2023-01-28T02:49:59;94991.59;;;-0.58;100.00
41686;BME280;27370;42.764;23.432;2023-01-28T03:03:21;94994.75;;;-0.52;100.00
41686;BME280;27370;42.764;23.432;2023-01-28T03:05:56;94978.53;;;-0.67;100.00
41686;BME280;27370;42.764;23.432;2023-01-28T03:08:39;95003.72;;;-0.60;100.00
41686;BME280;27370;42.764;23.432;2023-01-28T03:11:26;94988.41;;;-0.67;100.00
41686;BME280;27370;42.764;23.432;2023-01-28T03:14:11;94997.81;;;-0.70;100.00
41686;BME280;27370;42.764;23.432;2023-01-28T03:16:58;94998.25;;;-0.68;100.00
41686;BME280;27370;42.764;23.432;2023-01-28T03:19:44;94997.03;;;-0.70;100.00
41686;BME280;27370;42.764;23.432;2023-01-28T03:22:31;95007.00;;;-0.67;100.00
41686;BME280;27370;42.764;23.432;2023-01-28T03:25:19;95001.06;;;-0.60;100.00
41686;BME280;27370;42.764;23.432;2023-01-28T03:28:08;95010.34;;;-0.70;100.00
41686;BME280;27370;42.764;23.432;2023-01-28T03:31:15;95001.88;;;-0.76;100.00
41686;BME280;27370;42.764;23.432;2023-01-28T03:34:01;95003.59;;;-0.68;100.00
41686;BME280;27370;42.764;23.432;2023-01-28T03:36:47;95010.44;;;-0.67;100.00
41686;BME280;27370;42.764;23.432;2023-01-28T03:39:35;95008.09;;;-0.87;100.00
41686;BME280;27370;42.764;23.432;2023-01-28T03:42:08;95002.50;;;-0.82;100.00
41686;BME280;27370;42.764;23.432;2023-01-28T03:44:38;95014.81;;;-0.74;100.00
41686;BME280;27370;42.764;23.432;2023-01-28T03:47:19;95017.88;;;-0.72;100.00
41686;BME280;27370;42.764;23.432;2023-01-28T03:49:48;95018.16;;;-0.77;100.00
41686;BME280;27370;42.764;23.432;2023-01-28T03:52:32;95020.75;;;-0.81;100.00
41686;BME280;27370;42.764;23.432;2023-01-28T03:55:21;95018.63;;;-0.91;100.00
41686;BME280;27370;42.764;23.432;2023-01-28T03:57:50;95018.38;;;-0.86;100.00
41686;BME280;27370;42.764;23.432;2023-01-28T04:00:16;95023.28;;;-0.88;100.00
41686;BME280;27370;42.764;23.432;2023-01-28T04:02:43;95007.31;;;-0.88;100.00
41686;BME280;27370;42.764;23.432;2023-01-28T04:05:12;95028.53;;;-0.72;100.00
41686;BME280;27370;42.764;23.432;2023-01-28T04:07:44;95018.78;;;-0.84;100.00
41686;BME280;27370;42.764;23.432;2023-01-28T04:10:28;95024.03;;;-0.87;100.00
41686;BME280;27370;42.764;23.432;2023-01-28T04:13:05;95024.38;;;-0.89;100.00
41686;BME280;27370;42.764;23.432;2023-01-28T04:15:31;95022.06;;;-0.90;100.00
41686;BME280;27370;42.764;23.432;2023-01-28T04:17:57;95034.03;;;-0.81;100.00
41686;BME280;27370;42.764;23.432;2023-01-28T04:20:27;95025.31;;;-0.81;100.00
41686;BME280;27370;42.764;23.432;2023-01-28T04:22:54;95032.31;;;-0.73;100.00
41686;BME280;27370;42.764;23.432;2023-01-28T04:25:20;95035.72;;;-0.73;100.00
41686;BME280;27370;42.764;23.432;2023-01-28T04:27:47;95027.53;;;-0.83;100.00
41686;BME280;27370;42.764;23.432;2023-01-28T04:30:20;95042.44;;;-0.79;100.00
41686;BME280;27370;42.764;23.432;2023-01-28T04:33:24;95034.31;;;-0.86;100.00
41686;BME280;27370;42.764;23.432;2023-01-28T04:35:52;95035.88;;;-0.85;100.00
41686;BME280;27370;42.764;23.432;2023-01-28T04:38:47;95038.44;;;-0.88;100.00
41686;BME280;27370;42.764;23.432;2023-01-28T04:41:36;95051.22;;;-0.94;100.00
41686;BME280;27370;42.764;23.432;2023-01-28T04:44:13;95043.25;;;-0.94;100.00
41686;BME280;27370;42.764;23.432;2023-01-28T04:46:59;95053.09;;;-0.95;100.00
41686;BME280;27370;42.764;23.432;2023-01-28T04:49:47;95040.84;;;-0.99;100.00
41686;BME280;27370;42.764;23.432;2023-01-28T04:52:33;95059.94;;;-0.94;100.00
41686;BME280;27370;42.764;23.432;2023-01-28T04:55:33;95052.41;;;-0.92;100.00
41686;BME280;27370;42.764;23.432;2023-01-28T04:57:59;95055.50;;;-0.89;100.00
41686;BME280;27370;42.764;23.432;2023-01-28T05:00:26;95053.78;;;-0.98;100.00
41686;BME280;27370;42.764;23.432;2023-01-28T05:02:51;95074.69;;;-0.80;100.00
41686;BME280;27370;42.764;23.432;2023-01-28T05:05:17;95050.72;;;-1.00;100.00
41686;BME280;27370;42.764;23.432;2023-01-28T05:07:56;95060.47;;;-0.88;100.00
41686;BME280;27370;42.764;23.432;2023-01-28T05:10:22;95075.72;;;-0.85;100.00
41686;BME280;27370;42.764;23.432;2023-01-28T05:12:48;95052.31;;;-0.95;100.00
41686;BME280;27370;42.764;23.432;2023-01-28T05:15:15;95078.13;;;-0.96;100.00
41686;BME280;27370;42.764;23.432;2023-01-28T05:17:41;95072.84;;;-1.11;100.00
41686;BME280;27370;42.764;23.432;2023-01-28T05:20:10;95087.91;;;-1.15;100.00
41686;BME280;27370;42.764;23.432;2023-01-28T05:22:36;95086.63;;;-1.21;100.00
41686;BME280;27370;42.764;23.432;2023-01-28T05:25:13;95077.22;;;-1.35;100.00
41686;BME280;27370;42.764;23.432;2023-01-28T05:27:39;95093.03;;;-1.38;100.00
41686;BME280;27370;42.764;23.432;2023-01-28T05:30:05;95084.56;;;-1.44;100.00
41686;BME280;27370;42.764;23.432;2023-01-28T05:32:31;95090.03;;;-1.37;100.00
41686;BME280;27370;42.764;23.432;2023-01-28T05:34:57;95086.72;;;-1.49;100.00
41686;BME280;27370;42.764;23.432;2023-01-28T05:37:23;95091.41;;;-1.43;100.00
41686;BME280;27370;42.764;23.432;2023-01-28T05:39:52;95095.28;;;-1.40;100.00
41686;BME280;27370;42.764;23.432;2023-01-28T05:42:18;95096.38;;;-1.41;100.00
41686;BME280;27370;42.764;23.432;2023-01-28T05:44:49;95083.72;;;-1.48;100.00
41686;BME280;27370;42.764;23.432;2023-01-28T05:47:21;95100.34;;;-1.35;100.00
41686;BME280;27370;42.764;23.432;2023-01-28T05:49:55;95089.72;;;-1.35;100.00
41686;BME280;27370;42.764;23.432;2023-01-28T05:52:30;95104.88;;;-1.20;100.00
41686;BME280;27370;42.764;23.432;2023-01-28T05:54:56;95115.00;;;-1.26;100.00
41686;BME280;27370;42.764;23.432;2023-01-28T05:57:22;95113.19;;;-1.21;100.00
41686;BME280;27370;42.764;23.432;2023-01-28T05:59:48;95100.59;;;-1.40;100.00
41686;BME280;27370;42.764;23.432;2023-01-28T06:02:14;95107.19;;;-1.18;100.00
41686;BME280;27370;42.764;23.432;2023-01-28T06:04:40;95102.75;;;-1.30;100.00
41686;BME280;27370;42.764;23.432;2023-01-28T06:07:06;95113.97;;;-1.21;100.00
41686;BME280;27370;42.764;23.432;2023-01-28T06:09:32;95131.28;;;-1.11;100.00
41686;BME280;27370;42.764;23.432;2023-01-28T06:11:57;95135.22;;;-1.21;100.00
41686;BME280;27370;42.764;23.432;2023-01-28T06:14:24;95129.97;;;-1.17;100.00
41686;BME280;27370;42.764;23.432;2023-01-28T06:17:09;95137.94;;;-1.17;100.00
41686;BME280;27370;42.764;23.432;2023-01-28T06:20:04;95130.94;;;-1.26;100.00
41686;BME280;27370;42.764;23.432;2023-01-28T06:22:31;95147.13;;;-1.15;100.00
41686;BME280;27370;42.764;23.432;2023-01-28T06:24:56;95154.50;;;-1.08;100.00
41686;BME280;27370;42.764;23.432;2023-01-28T06:27:22;95152.63;;;-1.08;100.00
41686;BME280;27370;42.764;23.432;2023-01-28T06:29:47;95149.78;;;-1.15;100.00
41686;BME280;27370;42.764;23.432;2023-01-28T06:32:13;95158.53;;;-0.99;100.00
41686;BME280;27370;42.764;23.432;2023-01-28T06:34:39;95149.88;;;-1.11;100.00
41686;BME280;27370;42.764;23.432;2023-01-28T06:37:04;95160.34;;;-1.03;100.00
41686;BME280;27370;42.764;23.432;2023-01-28T06:39:30;95161.63;;;-1.12;100.00
41686;BME280;27370;42.764;23.432;2023-01-28T06:41:59;95149.09;;;-1.28;100.00
41686;BME280;27370;42.764;23.432;2023-01-28T06:44:25;95167.72;;;-1.12;100.00
41686;BME280;27370;42.764;23.432;2023-01-28T06:46:50;95157.50;;;-1.10;100.00
41686;BME280;27370;42.764;23.432;2023-01-28T06:49:16;95166.69;;;-1.07;100.00
41686;BME280;27370;42.764;23.432;2023-01-28T06:51:41;95170.94;;;-1.18;100.00
41686;BME280;27370;42.764;23.432;2023-01-28T06:54:07;95175.13;;;-1.17;100.00
41686;BME280;27370;42.764;23.432;2023-01-28T06:56:33;95184.09;;;-1.10;100.00
41686;BME280;27370;42.764;23.432;2023-01-28T06:58:59;95179.09;;;-1.11;100.00
41686;BME280;27370;42.764;23.432;2023-01-28T07:01:24;95169.22;;;-1.27;100.00
41686;BME280;27370;42.764;23.432;2023-01-28T07:03:50;95190.16;;;-1.09;100.00
41686;BME280;27370;42.764;23.432;2023-01-28T07:06:15;95191.28;;;-0.95;100.00
41686;BME280;27370;42.764;23.432;2023-01-28T07:08:41;95202.25;;;-0.96;100.00
41686;BME280;27370;42.764;23.432;2023-01-28T07:11:07;95206.44;;;-0.95;100.00
41686;BME280;27370;42.764;23.432;2023-01-28T07:13:33;95194.97;;;-0.99;100.00
41686;BME280;27370;42.764;23.432;2023-01-28T07:15:59;95199.25;;;-0.95;100.00
41686;BME280;27370;42.764;23.432;2023-01-28T07:18:24;95203.78;;;-0.95;100.00
41686;BME280;27370;42.764;23.432;2023-01-28T07:20:50;95217.16;;;-0.92;100.00
41686;BME280;27370;42.764;23.432;2023-01-28T07:23:15;95214.06;;;-0.94;100.00
41686;BME280;27370;42.764;23.432;2023-01-28T07:25:40;95204.91;;;-0.96;100.00
41686;BME280;27370;42.764;23.432;2023-01-28T07:28:06;95222.06;;;-0.78;100.00
41686;BME280;27370;42.764;23.432;2023-01-28T07:30:32;95222.47;;;-0.92;100.00
41686;BME280;27370;42.764;23.432;2023-01-28T07:32:58;95240.25;;;-0.80;100.00
41686;BME280;27370;42.764;23.432;2023-01-28T07:35:24;95239.31;;;-0.87;100.00
41686;BME280;27370;42.764;23.432;2023-01-28T07:37:58;95238.34;;;-0.79;100.00
41686;BME280;27370;42.764;23.432;2023-01-28T07:40:24;95243.50;;;-0.71;100.00
41686;BME280;27370;42.764;23.432;2023-01-28T07:42:50;95237.84;;;-0.85;100.00
41686;BME280;27370;42.764;23.432;2023-01-28T07:45:20;95249.50;;;-0.74;100.00
41686;BME280;27370;42.764;23.432;2023-01-28T07:47:56;95252.06;;;-0.77;100.00
41686;BME280;27370;42.764;23.432;2023-01-28T07:50:23;95245.38;;;-0.71;100.00
41686;BME280;27370;42.764;23.432;2023-01-28T07:52:49;95243.34;;;-0.78;100.00
41686;BME280;27370;42.764;23.432;2023-01-28T07:55:15;95252.25;;;-0.70;100.00
41686;BME280;27370;42.764;23.432;2023-01-28T07:57:56;95258.97;;;-0.60;100.00
41686;BME280;27370;42.764;23.432;2023-01-28T08:00:23;95260.94;;;-0.57;100.00
41686;BME280;27370;42.764;23.432;2023-01-28T08:02:53;95248.72;;;-0.74;100.00
41686;BME280;27370;42.764;23.432;2023-01-28T08:05:20;95250.44;;;-0.82;100.00
41686;BME280;27370;42.764;23.432;2023-01-28T08:07:47;95269.44;;;-0.68;100.00
41686;BME280;27370;42.764;23.432;2023-01-28T08:10:14;95275.75;;;-0.56;100.00
41686;BME280;27370;42.764;23.432;2023-01-28T08:12:40;95260.50;;;-0.59;100.00
41686;BME280;27370;42.764;23.432;2023-01-28T08:15:06;95272.94;;;-0.48;100.00
41686;BME280;27370;42.764;23.432;2023-01-28T08:17:32;95272.44;;;-0.38;100.00
41686;BME280;27370;42.764;23.432;2023-01-28T08:19:58;95269.75;;;-0.38;100.00
41686;BME280;27370;42.764;23.432;2023-01-28T08:22:26;95263.16;;;-0.44;100.00
41686;BME280;27370;42.764;23.432;2023-01-28T08:24:52;95276.28;;;-0.35;100.00
41686;BME280;27370;42.764;23.432;2023-01-28T08:27:17;95273.19;;;-0.37;100.00
41686;BME280;27370;42.764;23.432;2023-01-28T08:29:43;95277.56;;;-0.29;100.00
41686;BME280;27370;42.764;23.432;2023-01-28T08:32:10;95275.84;;;-0.21;100.00
41686;BME280;27370;42.764;23.432;2023-01-28T08:34:35;95281.69;;;-0.16;100.00
41686;BME280;27370;42.764;23.432;2023-01-28T08:37:01;95279.44;;;0.02;100.00
41686;BME280;27370;42.764;23.432;2023-01-28T08:39:27;95281.56;;;-0.04;100.00
41686;BME280;27370;42.764;23.432;2023-01-28T08:41:52;95285.69;;;0.10;100.00
41686;BME280;27370;42.764;23.432;2023-01-28T08:44:17;95283.50;;;0.15;100.00
41686;BME280;27370;42.764;23.432;2023-01-28T08:46:43;95279.59;;;0.09;100.00
41686;BME280;27370;42.764;23.432;2023-01-28T08:49:08;95282.56;;;0.23;100.00
41686;BME280;27370;42.764;23.432;2023-01-28T08:51:34;95294.13;;;0.31;100.00
41686;BME280;27370;42.764;23.432;2023-01-28T08:53:59;95279.28;;;0.30;100.00
41686;BME280;27370;42.764;23.432;2023-01-28T08:56:26;95274.91;;;0.22;100.00
41686;BME280;27370;42.764;23.432;2023-01-28T08:58:52;95291.22;;;0.20;100.00
41686;BME280;27370;42.764;23.432;2023-01-28T09:01:17;95294.66;;;0.21;100.00
41686;BME280;27370;42.764;23.432;2023-01-28T09:03:42;95292.97;;;0.13;100.00
41686;BME280;27370;42.764;23.432;2023-01-28T09:06:08;95300.19;;;0.12;100.00
41686;BME280;27370;42.764;23.432;2023-01-28T09:08:33;95298.88;;;0.22;100.00
41686;BME280;27370;42.764;23.432;2023-01-28T09:10:59;95297.94;;;0.14;100.00
41686;BME280;27370;42.764;23.432;2023-01-28T09:13:25;95300.81;;;0.41;100.00
41686;BME280;27370;42.764;23.432;2023-01-28T09:15:51;95292.03;;;0.40;100.00
41686;BME280;27370;42.764;23.432;2023-01-28T09:18:17;95299.75;;;0.26;100.00
41686;BME280;27370;42.764;23.432;2023-01-28T09:20:43;95300.25;;;0.16;100.00
41686;BME280;27370;42.764;23.432;2023-01-28T09:23:09;95297.78;;;0.07;100.00
41686;BME280;27370;42.764;23.432;2023-01-28T09:25:35;95298.19;;;0.25;100.00
41686;BME280;27370;42.764;23.432;2023-01-28T09:28:01;95280.91;;;0.35;100.00
41686;BME280;27370;42.764;23.432;2023-01-28T09:30:27;95295.47;;;0.41;100.00
41686;BME280;27370;42.764;23.432;2023-01-28T09:32:54;95289.84;;;0.26;100.00
41686;BME280;27370;42.764;23.432;2023-01-28T09:35:20;95275.34;;;0.24;100.00
41686;BME280;27370;42.764;23.432;2023-01-28T09:37:47;95278.19;;;0.15;100.00
41686;BME280;27370;42.764;23.432;2023-01-28T09:40:16;95291.66;;;0.22;100.00
41686;BME280;27370;42.764;23.432;2023-01-28T09:45:36;95280.22;;;0.22;100.00
41686;BME280;27370;42.764;23.432;2023-01-28T09:48:04;95275.06;;;0.29;100.00
41686;BME280;27370;42.764;23.432;2023-01-28T09:50:39;95296.81;;;0.31;100.00
41686;BME280;27370;42.764;23.432;2023-01-28T09:55:47;95291.75;;;0.45;100.00
41686;BME280;27370;42.764;23.432;2023-01-28T09:58:15;95288.59;;;0.40;100.00
41686;BME280;27370;42.764;23.432;2023-01-28T10:07:12;95296.94;;;0.38;100.00
41686;BME280;27370;42.764;23.432;2023-01-28T10:09:55;95293.81;;;0.52;100.00
41686;BME280;27370;42.764;23.432;2023-01-28T10:15:23;95284.81;;;0.41;100.00
41686;BME280;27370;42.764;23.432;2023-01-28T10:17:53;95280.81;;;0.31;100.00
41686;BME280;27370;42.764;23.432;2023-01-28T10:20:31;95292.34;;;0.54;100.00
41686;BME280;27370;42.764;23.432;2023-01-28T10:25:41;95280.16;;;0.53;100.00
41686;BME280;27370;42.764;23.432;2023-01-28T10:28:19;95271.09;;;0.58;100.00
41686;BME280;27370;42.764;23.432;2023-01-28T10:30:46;95280.97;;;0.38;100.00
41686;BME280;27370;42.764;23.432;2023-01-28T10:35:51;95280.28;;;0.41;100.00
41686;BME280;27370;42.764;23.432;2023-01-28T10:38:21;95283.91;;;0.33;100.00
41686;BME280;27370;42.764;23.432;2023-01-28T10:40:47;95277.66;;;0.25;100.00
41686;BME280;27370;42.764;23.432;2023-01-28T10:43:22;95276.47;;;0.42;100.00
41686;BME280;27370;42.764;23.432;2023-01-28T10:48:23;95270.38;;;0.42;100.00
41686;BME280;27370;42.764;23.432;2023-01-28T10:53:15;95272.28;;;0.41;100.00
41686;BME280;27370;42.764;23.432;2023-01-28T10:55:49;95272.78;;;0.47;100.00
41686;BME280;27370;42.764;23.432;2023-01-28T10:58:19;95264.59;;;0.55;100.00
41686;BME280;27370;42.764;23.432;2023-01-28T11:00:55;95266.41;;;0.51;100.00
41686;BME280;27370;42.764;23.432;2023-01-28T11:03:25;95263.47;;;0.76;100.00
41686;BME280;27370;42.764;23.432;2023-01-28T11:06:00;95268.16;;;0.82;100.00
41686;BME280;27370;42.764;23.432;2023-01-28T11:08:28;95255.19;;;0.81;100.00
41686;BME280;27370;42.764;23.432;2023-01-28T11:10:55;95277.16;;;0.94;100.00
41686;BME280;27370;42.764;23.432;2023-01-28T11:13:25;95270.59;;;1.10;100.00
41686;BME280;27370;42.764;23.432;2023-01-28T11:16:20;95252.94;;;1.02;100.00
41686;BME280;27370;42.764;23.432;2023-01-28T11:21:27;95274.41;;;0.90;100.00
41686;BME280;27370;42.764;23.432;2023-01-28T11:24:04;95270.06;;;0.82;100.00
41686;BME280;27370;42.764;23.432;2023-01-28T11:26:42;95263.13;;;0.97;100.00
41686;BME280;27370;42.764;23.432;2023-01-28T11:29:27;95259.78;;;1.22;100.00
41686;BME280;27370;42.764;23.432;2023-01-28T11:31:54;95269.00;;;1.29;100.00
41686;BME280;27370;42.764;23.432;2023-01-28T11:34:25;95256.22;;;1.15;100.00
41686;BME280;27370;42.764;23.432;2023-01-28T11:37:13;95260.47;;;1.19;100.00
41686;BME280;27370;42.764;23.432;2023-01-28T11:39:38;95263.22;;;1.23;100.00
41686;BME280;27370;42.764;23.432;2023-01-28T11:42:24;95254.50;;;1.26;100.00
41686;BME280;27370;42.764;23.432;2023-01-28T11:44:49;95259.34;;;1.20;100.00
41686;BME280;27370;42.764;23.432;2023-01-28T11:58:20;95258.53;;;1.62;100.00
41686;BME280;27370;42.764;23.432;2023-01-28T12:01:15;95258.41;;;1.55;100.00
41686;BME280;27370;42.764;23.432;2023-01-28T12:15:31;95244.88;;;1.90;100.00
41686;BME280;27370;42.764;23.432;2023-01-28T12:29:47;95261.44;;;2.03;100.00
41686;BME280;27370;42.764;23.432;2023-01-28T12:35:30;95262.88;;;1.97;100.00
41686;BME280;27370;42.764;23.432;2023-01-28T12:43:10;95269.75;;;1.71;100.00
41686;BME280;27370;42.764;23.432;2023-01-28T12:45:42;95274.25;;;1.67;100.00
41686;BME280;27370;42.764;23.432;2023-01-28T12:48:26;95277.03;;;1.51;100.00
41686;BME280;27370;42.764;23.432;2023-01-28T12:51:03;95276.31;;;1.54;100.00
41686;BME280;27370;42.764;23.432;2023-01-28T12:56:27;95270.03;;;1.66;100.00
41686;BME280;27370;42.764;23.432;2023-01-28T12:59:09;95280.78;;;1.70;100.00
41686;BME280;27370;42.764;23.432;2023-01-28T13:01:44;95289.06;;;1.42;100.00
41686;BME280;27370;42.764;23.432;2023-01-28T13:04:35;95287.53;;;1.41;100.00
41686;BME280;27370;42.764;23.432;2023-01-28T13:09:35;95290.16;;;1.37;100.00
41686;BME280;27370;42.764;23.432;2023-01-28T13:12:03;95302.78;;;1.40;100.00
41686;BME280;27370;42.764;23.432;2023-01-28T13:14:31;95287.69;;;1.29;100.00
41686;BME280;27370;42.764;23.432;2023-01-28T13:17:25;95303.13;;;1.39;100.00
41686;BME280;27370;42.764;23.432;2023-01-28T13:19:51;95290.19;;;1.18;100.00
41686;BME280;27370;42.764;23.432;2023-01-28T13:22:31;95301.47;;;1.11;100.00
41686;BME280;27370;42.764;23.432;2023-01-28T13:25:17;95304.34;;;1.03;100.00
41686;BME280;27370;42.764;23.432;2023-01-28T13:27:56;95308.63;;;1.07;100.00
41686;BME280;27370;42.764;23.432;2023-01-28T13:30:28;95305.97;;;0.88;100.00
41686;BME280;27370;42.764;23.432;2023-01-28T13:32:57;95296.94;;;0.93;100.00
41686;BME280;27370;42.764;23.432;2023-01-28T13:35:37;95300.84;;;0.99;100.00
41686;BME280;27370;42.764;23.432;2023-01-28T13:38:18;95305.59;;;1.09;100.00
41686;BME280;27370;42.764;23.432;2023-01-28T13:40:56;95311.28;;;1.07;100.00
41686;BME280;27370;42.764;23.432;2023-01-28T13:43:35;95322.25;;;1.02;100.00
41686;BME280;27370;42.764;23.432;2023-01-28T13:46:07;95308.78;;;0.95;100.00
41686;BME280;27370;42.764;23.432;2023-01-28T13:51:18;95305.69;;;0.93;100.00
41686;BME280;27370;42.764;23.432;2023-01-28T13:56:27;95328.16;;;0.92;100.00
41686;BME280;27370;42.764;23.432;2023-01-28T14:02:03;95329.81;;;0.81;100.00
41686;BME280;27370;42.764;23.432;2023-01-28T14:10:02;95340.50;;;0.65;100.00
41686;BME280;27370;42.764;23.432;2023-01-28T14:12:58;95346.19;;;0.64;100.00
41686;BME280;27370;42.764;23.432;2023-01-28T14:15:55;95345.03;;;0.45;100.00
41686;BME280;27370;42.764;23.432;2023-01-28T14:18:24;95350.81;;;0.47;100.00
41686;BME280;27370;42.764;23.432;2023-01-28T14:20:52;95346.69;;;0.34;100.00
41686;BME280;27370;42.764;23.432;2023-01-28T14:23:21;95361.13;;;0.33;100.00
41686;BME280;27370;42.764;23.432;2023-01-28T14:31:32;95372.91;;;0.16;100.00
41686;BME280;27370;42.764;23.432;2023-01-28T14:34:24;95364.06;;;0.12;100.00
41686;BME280;27370;42.764;23.432;2023-01-28T14:36:53;95369.94;;;0.02;100.00
41686;BME280;27370;42.764;23.432;2023-01-28T14:39:24;95379.28;;;0.12;100.00
41686;BME280;27370;42.764;23.432;2023-01-28T14:41:51;95379.19;;;-0.08;100.00
41686;BME280;27370;42.764;23.432;2023-01-28T14:44:38;95382.28;;;-0.06;100.00
41686;BME280;27370;42.764;23.432;2023-01-28T14:50:10;95378.06;;;-0.07;100.00
41686;BME280;27370;42.764;23.432;2023-01-28T14:56:03;95394.13;;;-0.19;100.00
41686;BME280;27370;42.764;23.432;2023-01-28T14:58:40;95391.38;;;-0.22;100.00
41686;BME280;27370;42.764;23.432;2023-01-28T15:01:23;95393.69;;;-0.21;100.00
41686;BME280;27370;42.764;23.432;2023-01-28T15:03:49;95402.53;;;-0.17;100.00
41686;BME280;27370;42.764;23.432;2023-01-28T15:06:17;95384.56;;;-0.36;100.00
41686;BME280;27370;42.764;23.432;2023-01-28T15:08:42;95394.88;;;-0.34;100.00